Terminal Aerodrome Forecast
Issued by NWS Cleveland, OH

Home | Current Version | Previous Version | Graphics & Text | Print | Product List | Glossary On
Versions: 1 2 3 4 5 6 7 8 9 10 11 12 13 14 15
186
FTUS41 KCLE 242328
TAFCAK
TAF
KCAK 242328Z 2500/2524 33009KT P6SM BKN050
     FM250600 32005KT P6SM BKN020
     FM250800 31005KT P6SM BKN015
     FM251600 35007KT P6SM SCT040
     FM252300 02006KT P6SM FEW120=

USA.gov is the U.S. government's official web portal to all federal, state and local government web resources and services.